createdAt,value
2024-04-18T00:00:28.594Z,9.462647
2024-04-18T00:01:28.654Z,9.462730
2024-04-18T00:02:28.560Z,9.462698
2024-04-18T00:03:28.722Z,9.462761
2024-04-18T00:04:28.686Z,9.462865
2024-04-18T00:05:28.575Z,9.462663
2024-04-18T00:06:28.533Z,9.462850
2024-04-18T00:07:28.557Z,9.462783
2024-04-18T00:08:28.519Z,9.462798
2024-04-18T00:09:28.526Z,9.462863
2024-04-18T00:10:28.567Z,9.462665
2024-04-18T00:11:28.465Z,9.462788
2024-04-18T00:12:28.495Z,9.462899
2024-04-18T00:13:28.497Z,9.462950
2024-04-18T00:14:28.482Z,9.462792
2024-04-18T00:15:28.605Z,9.463007
2024-04-18T00:16:28.463Z,9.462805
2024-04-18T00:17:28.522Z,9.462658
2024-04-18T00:18:28.552Z,9.462927
2024-04-18T00:19:28.432Z,9.462899
2024-04-18T00:20:28.474Z,9.463140
2024-04-18T00:21:28.437Z,9.463261
2024-04-18T00:22:28.451Z,9.463194
2024-04-18T00:23:28.484Z,9.463169
2024-04-18T00:24:28.447Z,9.463169
2024-04-18T00:25:28.404Z,9.463169
2024-04-18T00:26:28.375Z,9.463252
2024-04-18T00:27:28.388Z,9.463340
2024-04-18T00:28:28.388Z,9.463436
2024-04-18T00:29:28.360Z,9.463436
2024-04-18T00:30:28.388Z,9.463407
2024-04-18T00:31:28.369Z,9.463173
2024-04-18T00:32:28.687Z,9.463173
2024-04-18T00:33:28.535Z,9.463336
2024-04-18T00:34:28.358Z,9.463306
2024-04-18T00:35:28.341Z,9.463179
2024-04-18T00:36:28.358Z,9.463120
2024-04-18T00:37:28.311Z,9.462884
2024-04-18T00:38:28.404Z,9.463081
2024-04-18T00:39:28.348Z,9.463161
2024-04-18T00:40:28.652Z,9.463250
2024-04-18T00:41:28.398Z,9.463016
2024-04-18T00:42:28.329Z,9.462966
2024-04-18T00:43:28.265Z,9.462885
2024-04-18T00:44:28.532Z,9.463063
2024-04-18T00:45:28.456Z,9.463119
2024-04-18T00:46:28.338Z,9.463040
2024-04-18T00:47:28.302Z,9.462973
2024-04-18T00:48:28.379Z,9.462913
2024-04-18T00:49:28.279Z,9.462979
2024-04-18T00:50:28.277Z,9.462894
2024-04-18T00:51:28.328Z,9.462950
2024-04-18T00:52:28.288Z,9.462976
2024-04-18T00:53:28.191Z,9.462978
2024-04-18T00:54:28.199Z,9.462957
2024-04-18T00:55:28.196Z,9.462934
2024-04-18T00:56:28.209Z,9.463052
2024-04-18T00:57:28.174Z,9.462999
2024-04-18T00:58:28.247Z,9.463012
2024-04-18T00:59:28.173Z,9.462950
2024-04-18T01:00:28.215Z,9.462909
2024-04-18T01:01:28.217Z,9.462887
2024-04-18T01:02:28.253Z,9.462947
2024-04-18T01:03:28.261Z,9.463008
2024-04-18T01:04:28.281Z,9.462964
2024-04-18T01:05:28.112Z,9.462985
2024-04-18T01:06:28.197Z,9.463034
2024-04-18T01:07:28.101Z,9.462945
2024-04-18T01:08:28.112Z,9.462968
2024-04-18T01:09:28.109Z,9.462966
2024-04-18T01:10:28.215Z,9.462937
2024-04-18T01:11:28.140Z,9.462913
2024-04-18T01:12:28.106Z,9.463005
2024-04-18T01:13:28.142Z,9.462867
2024-04-18T01:14:28.131Z,9.462982
2024-04-18T01:15:28.162Z,9.462994
2024-04-18T01:16:28.133Z,9.462896
2024-04-18T01:17:28.225Z,9.463015
2024-04-18T01:18:28.106Z,9.462920
2024-04-18T01:19:28.086Z,9.463001
2024-04-18T01:20:28.008Z,9.462993
2024-04-18T01:21:28.075Z,9.462920
2024-04-18T01:22:28.029Z,9.463007
2024-04-18T01:23:28.017Z,9.463001
2024-04-18T01:24:28.118Z,9.463042
2024-04-18T01:25:27.983Z,9.463009
2024-04-18T01:26:27.990Z,9.462981
2024-04-18T01:27:27.970Z,9.462978
2024-04-18T01:28:28.004Z,9.462943
2024-04-18T01:29:28.300Z,9.462912
2024-04-18T01:30:28.287Z,9.462967
2024-04-18T01:31:27.954Z,9.462991
2024-04-18T01:32:27.985Z,9.462993
2024-04-18T01:33:27.997Z,9.463012
2024-04-18T01:34:28.289Z,9.463042
2024-04-18T01:35:27.960Z,9.463035
2024-04-18T01:36:27.974Z,9.462996
2024-04-18T01:37:27.958Z,9.463028
2024-04-18T01:38:27.894Z,9.463025
2024-04-18T01:39:27.952Z,9.463102
2024-04-18T01:40:28.665Z,9.462934
2024-04-18T01:41:27.880Z,9.462795
2024-04-18T01:42:28.062Z,9.462864
2024-04-18T01:43:27.860Z,9.462906
2024-04-18T01:44:27.916Z,9.463011
2024-04-18T01:45:27.973Z,9.462902
2024-04-18T01:46:27.888Z,9.462957
2024-04-18T01:47:27.906Z,9.463039
2024-04-18T01:48:28.138Z,9.462982
2024-04-18T01:49:28.031Z,9.462996
2024-04-18T01:50:27.821Z,9.463050
2024-04-18T01:51:27.861Z,9.463068
2024-04-18T01:52:27.859Z,9.463038
2024-04-18T01:53:27.798Z,9.463035
2024-04-18T01:54:27.870Z,9.462983
2024-04-18T01:55:27.829Z,9.462902
2024-04-18T01:56:27.787Z,9.463036
2024-04-18T01:57:27.799Z,9.463004
2024-04-18T01:58:27.808Z,9.462994
2024-04-18T01:59:27.753Z,9.463031
2024-04-18T02:00:27.838Z,9.463017
2024-04-18T02:01:27.806Z,9.463024
2024-04-18T02:02:27.745Z,9.463114
2024-04-18T02:03:28.066Z,9.463121
2024-04-18T02:04:28.565Z,9.463083
2024-04-18T02:05:27.736Z,9.463153
2024-04-18T02:06:27.765Z,9.462923
2024-04-18T02:07:27.746Z,9.463007
2024-04-18T02:08:27.735Z,9.462935
2024-04-18T02:09:27.777Z,9.462919
2024-04-18T02:10:27.719Z,9.462974
2024-04-18T02:11:27.734Z,9.462977
2024-04-18T02:12:27.700Z,9.463020
2024-04-18T02:13:27.714Z,9.463005
2024-04-18T02:14:27.655Z,9.463083
2024-04-18T02:15:27.760Z,9.462902
2024-04-18T02:16:27.674Z,9.463091
2024-04-18T02:17:27.721Z,9.463029
2024-04-18T02:18:27.720Z,9.463286
2024-04-18T02:19:27.638Z,9.463297
2024-04-18T02:20:27.677Z,9.463136
2024-04-18T02:21:27.684Z,9.462961
2024-04-18T02:22:27.677Z,9.463053
2024-04-18T02:23:27.750Z,9.463150
2024-04-18T02:24:27.696Z,9.463561
2024-04-18T02:25:27.633Z,9.463489
2024-04-18T02:26:27.584Z,9.463153
2024-04-18T02:27:27.592Z,9.463029
2024-04-18T02:28:27.561Z,9.463196
2024-04-18T02:29:27.759Z,9.463237
2024-04-18T02:30:27.950Z,9.463157
2024-04-18T02:31:27.542Z,9.463101
2024-04-18T02:32:27.654Z,9.463016
2024-04-18T02:33:27.553Z,9.462886
2024-04-18T02:34:27.549Z,9.462909
2024-04-18T02:35:27.531Z,9.462882
2024-04-18T02:36:27.525Z,9.463202
2024-04-18T02:37:27.507Z,9.463443
2024-04-18T02:38:27.514Z,9.463238
2024-04-18T02:39:27.528Z,9.463174
2024-04-18T02:40:27.874Z,9.463157
2024-04-18T02:41:27.492Z,9.462708
2024-04-18T02:42:27.589Z,9.462884
2024-04-18T02:43:27.468Z,9.463012
2024-04-18T02:44:27.668Z,9.462947
2024-04-18T02:45:27.531Z,9.463249
2024-04-18T02:46:27.502Z,9.463211
2024-04-18T02:47:27.807Z,9.463121
2024-04-18T02:48:27.512Z,9.463551
2024-04-18T02:49:27.427Z,9.463583
2024-04-18T02:50:27.476Z,9.463773
2024-04-18T02:51:27.461Z,9.463059
2024-04-18T02:52:27.433Z,9.463018
2024-04-18T02:53:27.408Z,9.462982
2024-04-18T02:54:27.424Z,9.462923
2024-04-18T02:55:27.689Z,9.463023
2024-04-18T02:56:27.546Z,9.462950
2024-04-18T02:57:27.436Z,9.462908
2024-04-18T02:58:27.403Z,9.463051
2024-04-18T02:59:27.570Z,9.463121
2024-04-18T03:00:27.469Z,9.463215
2024-04-18T03:01:27.442Z,9.462867
2024-04-18T03:02:27.614Z,9.462923
2024-04-18T03:03:27.405Z,9.462995
2024-04-18T03:04:27.409Z,9.462975
2024-04-18T03:05:27.386Z,9.463114
2024-04-18T03:06:27.438Z,9.463132
2024-04-18T03:07:27.376Z,9.462992
2024-04-18T03:08:27.325Z,9.462905
2024-04-18T03:09:27.463Z,9.463091
2024-04-18T03:10:27.293Z,9.463080
2024-04-18T03:11:27.337Z,9.463244
2024-04-18T03:12:27.329Z,9.463170
2024-04-18T03:13:27.306Z,9.463303
2024-04-18T03:14:27.283Z,9.463143
2024-04-18T03:15:27.294Z,9.463159
2024-04-18T03:16:27.250Z,9.463404
2024-04-18T03:17:27.317Z,9.463009
2024-04-18T03:18:27.391Z,9.463178
2024-04-18T03:19:27.281Z,9.462915
2024-04-18T03:20:27.243Z,9.462998
2024-04-18T03:21:27.282Z,9.463058
2024-04-18T03:22:27.462Z,9.462933
2024-04-18T03:23:27.234Z,9.462839
2024-04-18T03:24:27.229Z,9.462749
2024-04-18T03:25:27.197Z,9.463035
2024-04-18T03:26:27.220Z,9.462918
2024-04-18T03:27:27.313Z,9.463076
2024-04-18T03:28:27.191Z,9.462976
2024-04-18T03:29:27.173Z,9.462874
2024-04-18T03:30:27.244Z,9.463086
2024-04-18T03:31:27.192Z,9.463228
2024-04-18T03:32:27.399Z,9.463337
2024-04-18T03:33:27.191Z,9.463511
2024-04-18T03:34:27.132Z,9.463139
2024-04-18T03:35:27.178Z,9.463219
2024-04-18T03:36:27.170Z,9.463138
2024-04-18T03:37:27.154Z,9.463455
2024-04-18T03:38:27.103Z,9.463355
2024-04-18T03:39:27.160Z,9.463700
2024-04-18T03:40:27.204Z,9.463885
2024-04-18T03:41:27.107Z,9.463906
2024-04-18T03:42:27.261Z,9.463555
2024-04-18T03:43:27.378Z,9.463979
2024-04-18T03:44:27.085Z,9.463303
2024-04-18T03:45:27.095Z,9.463316
2024-04-18T03:46:27.049Z,9.463206
2024-04-18T03:47:27.076Z,9.463017
2024-04-18T03:48:27.260Z,9.462946
2024-04-18T03:49:27.079Z,9.462874
2024-04-18T03:50:27.051Z,9.462907
2024-04-18T03:51:27.028Z,9.462733
2024-04-18T03:52:27.042Z,9.462977
2024-04-18T03:53:27.041Z,9.462974
2024-04-18T03:54:27.090Z,9.462904
2024-04-18T03:55:27.168Z,9.462774
2024-04-18T03:56:26.987Z,9.462811
2024-04-18T03:57:27.055Z,9.462976
2024-04-18T03:58:27.251Z,9.462968
2024-04-18T03:59:27.407Z,9.462948
2024-04-18T04:00:27.054Z,9.463065
2024-04-18T04:01:27.251Z,9.462999
2024-04-18T04:02:26.961Z,9.462962
2024-04-18T04:03:26.991Z,9.462946
2024-04-18T04:04:27.068Z,9.462940
2024-04-18T04:05:26.911Z,9.462955
2024-04-18T04:06:26.976Z,9.462931
2024-04-18T04:07:26.958Z,9.462965
2024-04-18T04:08:26.924Z,9.462900
2024-04-18T04:09:26.994Z,9.463024
2024-04-18T04:10:26.879Z,9.462857
2024-04-18T04:11:26.957Z,9.462879
2024-04-18T04:12:26.997Z,9.462906
2024-04-18T04:13:27.107Z,9.462874
2024-04-18T04:14:26.915Z,9.462893
2024-04-18T04:15:26.934Z,9.462942
2024-04-18T04:16:26.863Z,9.462943
2024-04-18T04:17:26.880Z,9.462819
2024-04-18T04:18:27.025Z,9.462768
2024-04-18T04:19:27.121Z,9.462842
2024-04-18T04:20:26.832Z,9.462879
2024-04-18T04:21:26.963Z,9.462854
2024-04-18T04:22:27.877Z,9.462850
2024-04-18T04:23:26.812Z,9.462976
2024-04-18T04:24:26.873Z,9.462905
2024-04-18T04:25:26.781Z,9.462914
2024-04-18T04:26:26.803Z,9.462802
2024-04-18T04:27:26.828Z,9.462934
2024-04-18T04:28:26.817Z,9.462908
2024-04-18T04:29:26.757Z,9.462968
2024-04-18T04:30:26.828Z,9.462968
2024-04-18T04:31:26.753Z,9.463191
2024-04-18T04:32:26.811Z,9.463184
2024-04-18T04:33:26.759Z,9.463141
2024-04-18T04:34:26.778Z,9.462795
2024-04-18T04:35:26.729Z,9.462921
2024-04-18T04:36:26.773Z,9.463137
2024-04-18T04:37:26.985Z,9.462885
2024-04-18T04:38:26.707Z,9.462909
2024-04-18T04:39:26.729Z,9.463170
2024-04-18T04:40:26.885Z,9.462862
2024-04-18T04:41:26.706Z,9.463385
2024-04-18T04:42:26.746Z,9.463511
2024-04-18T04:43:26.716Z,9.462994
2024-04-18T04:44:26.748Z,9.462948
2024-04-18T04:45:26.673Z,9.462899
2024-04-18T04:46:26.716Z,9.462757
2024-04-18T04:47:26.700Z,9.462953
2024-04-18T04:48:26.739Z,9.462940
2024-04-18T04:49:26.770Z,9.462951
2024-04-18T04:50:26.617Z,9.462976
2024-04-18T04:51:26.665Z,9.463009
2024-04-18T04:52:26.602Z,9.462984
2024-04-18T04:53:26.603Z,9.463107
2024-04-18T04:54:26.854Z,9.463095
2024-04-18T04:55:26.619Z,9.463215
2024-04-18T04:56:26.615Z,9.463176
2024-04-18T04:57:26.610Z,9.463023
2024-04-18T04:58:26.598Z,9.462886
2024-04-18T04:59:26.556Z,9.462866
2024-04-18T05:00:26.672Z,9.462928
2024-04-18T05:01:26.613Z,9.463077
2024-04-18T05:02:26.576Z,9.462797
2024-04-18T05:03:26.622Z,9.463136
2024-04-18T05:04:26.566Z,9.462889
2024-04-18T05:05:26.542Z,9.463043
2024-04-18T05:06:26.617Z,9.462865
2024-04-18T05:07:26.549Z,9.462929
2024-04-18T05:08:26.530Z,9.463161
2024-04-18T05:09:26.576Z,9.463024
2024-04-18T05:10:26.498Z,9.463142
2024-04-18T05:11:26.650Z,9.463158
2024-04-18T05:12:26.533Z,9.463230
2024-04-18T05:13:26.464Z,9.462822
2024-04-18T05:14:26.471Z,9.463002
2024-04-18T05:15:26.490Z,9.463334
2024-04-18T05:16:26.691Z,9.463174
2024-04-18T05:17:26.432Z,9.463171
2024-04-18T05:18:26.462Z,9.463122
2024-04-18T05:19:26.442Z,9.463187
2024-04-18T05:20:26.417Z,9.463671
2024-04-18T05:21:26.472Z,9.463183
2024-04-18T05:22:26.409Z,9.463303
2024-04-18T05:23:26.444Z,9.463395
2024-04-18T05:24:26.419Z,9.462740
2024-04-18T05:25:26.973Z,9.462740
2024-04-18T05:26:26.417Z,9.462740
2024-04-18T05:27:26.623Z,9.463326
2024-04-18T05:28:26.403Z,9.463173
2024-04-18T05:29:26.355Z,9.463213
2024-04-18T05:30:26.388Z,9.463213
2024-04-18T05:31:26.345Z,9.463213
2024-04-18T05:32:26.412Z,9.463213
2024-04-18T05:33:26.437Z,9.463213
2024-04-18T05:34:26.320Z,9.463213
2024-04-18T05:35:26.419Z,9.463213
2024-04-18T05:36:26.366Z,9.463213
2024-04-18T05:37:26.366Z,9.463213
2024-04-18T05:38:26.320Z,9.463213
2024-04-18T05:39:26.421Z,9.463213
2024-04-18T05:40:26.394Z,9.463213
2024-04-18T05:41:26.313Z,9.463213
2024-04-18T05:42:26.307Z,9.463213
2024-04-18T05:43:26.329Z,9.463213
2024-04-18T05:44:26.292Z,9.463213
2024-04-18T05:45:26.286Z,9.463213
2024-04-18T05:46:26.253Z,9.463213
2024-04-18T05:47:26.351Z,9.463027
2024-04-18T05:48:26.269Z,9.463027
2024-04-18T05:49:26.271Z,9.462964
2024-04-18T05:50:26.220Z,9.462692
2024-04-18T05:51:26.371Z,9.462671
2024-04-18T05:52:26.280Z,9.462864
2024-04-18T05:53:26.241Z,9.462903
2024-04-18T05:54:26.252Z,9.462940
2024-04-18T05:55:26.211Z,9.462940
2024-04-18T05:56:26.243Z,9.462946
2024-04-18T05:57:26.257Z,9.462875
2024-04-18T05:58:26.246Z,9.462812
2024-04-18T05:59:26.188Z,9.462825
2024-04-18T06:00:26.228Z,9.462802
2024-04-18T06:01:26.210Z,9.462983
2024-04-18T06:02:26.221Z,9.462877
2024-04-18T06:03:26.189Z,9.462815
2024-04-18T06:04:26.201Z,9.462859
2024-04-18T06:05:26.129Z,9.463012
2024-04-18T06:06:26.137Z,9.462970
2024-04-18T06:07:26.127Z,9.462719
2024-04-18T06:08:26.253Z,9.462748
2024-04-18T06:09:26.298Z,9.462866
2024-04-18T06:10:26.119Z,9.462900
2024-04-18T06:11:26.180Z,9.462920
2024-04-18T06:12:26.138Z,9.462947
2024-04-18T06:13:26.113Z,9.462966
2024-04-18T06:14:26.174Z,9.462966
2024-04-18T06:15:26.069Z,9.462966
2024-04-18T06:16:26.128Z,9.462966
2024-04-18T06:17:26.074Z,9.462966
2024-04-18T06:18:26.113Z,9.462966
2024-04-18T06:19:29.449Z,9.462966
2024-04-18T06:20:26.180Z,9.462584
2024-04-18T06:21:26.079Z,9.463261
2024-04-18T06:22:26.013Z,9.463826
2024-04-18T06:23:26.031Z,9.463066
2024-04-18T06:24:26.024Z,9.462733
2024-04-18T06:25:26.014Z,9.462683
2024-04-18T06:26:26.037Z,9.462666
2024-04-18T06:27:26.083Z,9.462744
2024-04-18T06:28:25.977Z,9.462874
2024-04-18T06:29:25.980Z,9.462575
2024-04-18T06:30:25.986Z,9.462446
2024-04-18T06:31:26.023Z,9.462497
2024-04-18T06:32:25.988Z,9.462648
2024-04-18T06:33:26.124Z,9.463096
2024-04-18T06:34:26.989Z,9.463322
2024-04-18T06:35:25.922Z,9.462841
2024-04-18T06:36:25.978Z,9.462630
2024-04-18T06:37:25.916Z,9.462785
2024-04-18T06:38:25.949Z,9.462920
2024-04-18T06:39:25.985Z,9.462699
2024-04-18T06:40:25.893Z,9.461907
2024-04-18T06:41:25.909Z,9.462550
2024-04-18T06:42:25.920Z,9.463554
2024-04-18T06:43:25.936Z,9.463455
2024-04-18T06:44:25.906Z,9.463455
2024-04-18T06:45:25.908Z,9.463455
2024-04-18T06:46:25.899Z,9.463455
2024-04-18T06:47:25.906Z,9.463455
2024-04-18T06:48:25.916Z,9.463455
2024-04-18T06:49:25.840Z,9.463455
2024-04-18T06:50:27.059Z,9.463455
2024-04-18T06:51:26.073Z,9.463455
2024-04-18T06:52:25.821Z,9.463455
2024-04-18T06:53:25.816Z,9.463455
2024-04-18T06:54:25.848Z,9.463455
2024-04-18T06:55:25.817Z,9.463455
2024-04-18T06:56:25.825Z,9.463455
2024-04-18T06:57:25.835Z,9.463455
2024-04-18T06:58:25.815Z,9.463455
2024-04-18T06:59:25.765Z,9.463455
2024-04-18T07:00:25.807Z,9.463455
2024-04-18T07:01:25.907Z,9.463455
2024-04-18T07:02:25.799Z,9.463455
2024-04-18T07:03:26.096Z,9.463455
2024-04-18T07:04:25.812Z,9.463455
2024-04-18T07:05:25.804Z,9.463455
2024-04-18T07:06:25.743Z,9.463455
2024-04-18T07:07:25.711Z,9.463455
2024-04-18T07:08:25.980Z,9.463455
2024-04-18T07:09:25.767Z,9.463455
2024-04-18T07:10:25.729Z,9.463455
2024-04-18T07:11:25.720Z,9.463455
2024-04-18T07:12:25.710Z,9.463455
2024-04-18T07:13:25.730Z,9.463455
2024-04-18T07:14:25.689Z,9.463455
2024-04-18T07:15:25.705Z,9.463455
2024-04-18T07:16:25.659Z,9.463455
2024-04-18T07:17:25.805Z,9.463455
2024-04-18T07:18:25.739Z,9.463455
2024-04-18T07:19:25.696Z,9.463455
2024-04-18T07:20:26.657Z,9.463455
2024-04-18T07:21:25.712Z,9.463455
2024-04-18T07:22:25.623Z,9.463455
2024-04-18T07:23:25.616Z,9.463455
2024-04-18T07:24:25.646Z,9.463455
2024-04-18T07:25:25.622Z,9.463455
2024-04-18T07:26:25.624Z,9.463455
2024-04-18T07:27:25.615Z,9.463455
2024-04-18T07:28:25.582Z,9.463455
2024-04-18T07:29:25.588Z,9.463074
2024-04-18T07:30:25.630Z,9.463120
2024-04-18T07:31:25.566Z,9.463073
2024-04-18T07:32:25.597Z,9.463107
2024-04-18T07:33:25.674Z,9.463104
2024-04-18T07:34:25.657Z,9.463179
2024-04-18T07:35:25.552Z,9.463061
2024-04-18T07:36:25.694Z,9.463115
2024-04-18T07:37:27.779Z,9.463017
2024-04-18T07:38:25.518Z,9.463087
2024-04-18T07:39:25.526Z,9.463095
2024-04-18T07:40:25.522Z,9.463137
2024-04-18T07:41:25.512Z,9.463141
2024-04-18T07:42:26.020Z,9.462964
2024-04-18T07:43:25.511Z,9.462938
2024-04-18T07:44:25.477Z,9.463001
2024-04-18T07:45:25.502Z,9.463063
2024-04-18T07:46:25.464Z,9.463185
2024-04-18T07:47:25.560Z,9.463194
2024-04-18T07:48:25.575Z,9.463073
2024-04-18T07:49:25.521Z,9.463148
2024-04-18T07:50:25.449Z,9.463280
2024-04-18T07:51:25.478Z,9.463355
2024-04-18T07:52:25.522Z,9.463645
2024-04-18T07:53:26.467Z,9.463468
2024-04-18T07:54:25.505Z,9.463302
2024-04-18T07:55:25.404Z,9.463314
2024-04-18T07:56:26.023Z,9.463331
2024-04-18T07:57:25.871Z,9.463299
2024-04-18T07:58:25.895Z,9.463497
2024-04-18T07:59:26.163Z,9.463760
2024-04-18T08:00:26.284Z,9.463038
2024-04-18T08:01:26.847Z,9.463094
2024-04-18T08:02:27.022Z,9.463185
2024-04-18T08:03:27.473Z,9.463077
2024-04-18T08:04:45.156Z,9.462931
2024-04-18T08:05:28.392Z,9.463087
2024-04-18T08:06:28.100Z,9.463042
2024-04-18T08:07:28.401Z,9.462840
2024-04-18T08:08:29.086Z,9.462926
2024-04-18T08:09:27.925Z,9.463015
2024-04-18T08:10:33.067Z,9.463035
2024-04-18T08:11:53.357Z,9.462847
2024-04-18T08:12:29.812Z,9.462834
2024-04-18T08:13:29.948Z,9.462818
2024-04-18T08:14:29.930Z,9.462866
2024-04-18T08:16:26.420Z,9.463273
2024-04-18T08:17:25.493Z,9.462964
2024-04-18T08:18:25.240Z,9.463149
2024-04-18T08:19:25.236Z,9.463249
2024-04-18T08:20:25.275Z,9.463035
2024-04-18T08:21:25.245Z,9.463164
2024-04-18T08:22:25.227Z,9.462780
2024-04-18T08:23:25.207Z,9.463282
2024-04-18T08:24:25.217Z,9.462544
2024-04-18T08:25:25.272Z,9.462992
2024-04-18T08:26:25.253Z,9.462914
2024-04-18T08:27:25.223Z,9.462733
2024-04-18T08:28:25.174Z,9.462618
2024-04-18T08:29:25.185Z,9.462805
2024-04-18T08:30:25.240Z,9.462789
2024-04-18T08:31:25.221Z,9.462722
2024-04-18T08:32:25.145Z,9.462777
2024-04-18T08:33:25.200Z,9.462996
2024-04-18T08:34:26.055Z,9.463035
2024-04-18T08:35:25.330Z,9.462868
2024-04-18T08:36:25.211Z,9.462918
2024-04-18T08:37:25.123Z,9.462939
2024-04-18T08:38:25.112Z,9.462719
2024-04-18T08:39:25.131Z,9.462667
2024-04-18T08:40:25.124Z,9.463099
2024-04-18T08:41:25.093Z,9.463149
2024-04-18T08:42:25.107Z,9.463069
2024-04-18T08:43:25.067Z,9.463037
2024-04-18T08:44:25.061Z,9.462960
2024-04-18T08:45:25.204Z,9.462954
2024-04-18T08:46:25.082Z,9.462916
2024-04-18T08:47:25.180Z,9.462893
2024-04-18T08:48:25.257Z,9.462764
2024-04-18T08:49:25.115Z,9.462885
2024-04-18T08:50:25.019Z,9.462914
2024-04-18T08:51:25.067Z,9.463031
2024-04-18T08:52:25.004Z,9.463067
2024-04-18T08:53:24.988Z,9.463017
2024-04-18T08:54:24.990Z,9.463038
2024-04-18T08:55:25.125Z,9.462998
2024-04-18T08:56:24.991Z,9.463071
2024-04-18T08:57:24.989Z,9.463035
2024-04-18T08:58:24.981Z,9.463019
2024-04-18T08:59:24.960Z,9.463037
2024-04-18T09:00:25.010Z,9.463026
2024-04-18T09:01:24.977Z,9.463064
2024-04-18T09:02:24.940Z,9.463018
2024-04-18T09:03:24.969Z,9.463067
2024-04-18T09:04:24.947Z,9.463064
2024-04-18T09:05:24.963Z,9.463084
2024-04-18T09:06:24.946Z,9.463034
2024-04-18T09:07:24.890Z,9.462982
2024-04-18T09:08:24.899Z,9.463046
2024-04-18T09:09:24.969Z,9.463015
2024-04-18T09:10:24.996Z,9.462483
2024-04-18T09:11:24.928Z,9.462824
2024-04-18T09:12:24.936Z,9.462840
2024-04-18T09:13:27.077Z,9.463090
2024-04-18T09:14:24.840Z,9.462702
2024-04-18T09:15:24.943Z,9.462858
2024-04-18T09:16:24.863Z,9.463165
2024-04-18T09:17:24.878Z,9.462943
2024-04-18T09:18:24.930Z,9.462867
2024-04-18T09:19:24.884Z,9.462873
2024-04-18T09:20:24.803Z,9.462990
2024-04-18T09:21:24.835Z,9.463006
2024-04-18T09:22:24.783Z,9.463030
2024-04-18T09:23:24.782Z,9.462930
2024-04-18T09:24:24.830Z,9.462996
2024-04-18T09:25:24.810Z,9.463201
2024-04-18T09:26:24.759Z,9.463169
2024-04-18T09:27:24.783Z,9.463161
2024-04-18T09:28:24.750Z,9.462704
2024-04-18T09:29:24.736Z,9.462837
2024-04-18T09:30:24.807Z,9.462907
2024-04-18T09:31:31.063Z,9.462834
2024-04-18T09:32:25.742Z,9.462869
2024-04-18T09:33:24.956Z,9.462976
2024-04-18T09:34:24.816Z,9.462991
2024-04-18T09:35:24.735Z,9.463123
2024-04-18T09:36:24.741Z,9.463085
2024-04-18T09:37:24.687Z,9.462998
2024-04-18T09:38:24.673Z,9.462997
2024-04-18T09:39:24.684Z,9.463018
2024-04-18T09:40:24.689Z,9.463009
2024-04-18T09:41:24.715Z,9.462991
2024-04-18T09:42:24.704Z,9.463016
2024-04-18T09:43:24.654Z,9.463044
2024-04-18T09:44:27.085Z,9.462981
2024-04-18T09:45:24.683Z,9.462971
2024-04-18T09:46:24.653Z,9.462927
2024-04-18T09:47:24.615Z,9.462908
2024-04-18T09:48:25.046Z,9.462874
2024-04-18T09:49:24.842Z,9.462978
2024-04-18T09:50:24.606Z,9.462976
2024-04-18T09:51:25.334Z,9.462914
2024-04-18T09:52:24.591Z,9.462964
2024-04-18T09:53:24.611Z,9.463007
2024-04-18T09:54:24.674Z,9.463031
2024-04-18T09:55:26.030Z,9.462996
2024-04-18T09:56:24.555Z,9.463010
2024-04-18T09:57:24.606Z,9.463097
2024-04-18T09:58:24.537Z,9.463162
2024-04-18T09:59:24.530Z,9.463099
2024-04-18T10:00:24.608Z,9.463006
2024-04-18T10:01:24.549Z,9.462884
2024-04-18T10:02:24.618Z,9.462851
2024-04-18T10:03:24.611Z,9.462870
2024-04-18T10:04:24.530Z,9.462926
2024-04-18T10:05:24.482Z,9.462895
2024-04-18T10:06:24.508Z,9.462925
2024-04-18T10:07:24.491Z,9.462911
2024-04-18T10:08:24.490Z,9.462959
2024-04-18T10:09:24.498Z,9.462949
2024-04-18T10:10:24.472Z,9.462859
2024-04-18T10:11:24.644Z,9.462934
2024-04-18T10:12:24.455Z,9.463059
2024-04-18T10:13:26.243Z,9.462910
2024-04-18T10:14:24.497Z,9.462895
2024-04-18T10:15:24.527Z,9.462918
2024-04-18T10:16:25.039Z,9.462976
2024-04-18T10:17:24.584Z,9.462930
2024-04-18T10:18:24.510Z,9.462973
2024-04-18T10:19:24.539Z,9.462944
2024-04-18T10:20:24.413Z,9.462986
2024-04-18T10:21:33.038Z,9.462976
2024-04-18T10:23:24.389Z,9.462909
2024-04-18T10:24:24.439Z,9.462885
2024-04-18T10:25:24.405Z,9.462964
2024-04-18T10:26:24.359Z,9.462942
2024-04-18T10:27:24.527Z,9.462994
2024-04-18T10:28:24.426Z,9.462976
2024-04-18T10:29:24.323Z,9.462984
2024-04-18T10:30:24.406Z,9.463043
2024-04-18T10:31:24.350Z,9.462812
2024-04-18T10:32:24.317Z,9.462987
2024-04-18T10:33:24.384Z,9.462770
2024-04-18T10:34:24.310Z,9.462912
2024-04-18T10:35:24.374Z,9.463040
2024-04-18T10:36:24.607Z,9.462970
2024-04-18T10:37:24.419Z,9.462897
2024-04-18T10:38:24.467Z,9.462811
2024-04-18T10:39:24.506Z,9.463036
2024-04-18T10:40:24.357Z,9.463075
2024-04-18T10:41:24.282Z,9.463036
2024-04-18T10:42:24.608Z,9.462896
2024-04-18T10:43:24.239Z,9.462891
2024-04-18T10:44:24.224Z,9.462955
2024-04-18T10:45:24.284Z,9.462834
2024-04-18T10:46:24.214Z,9.463038
2024-04-18T10:47:24.278Z,9.463026
2024-04-18T10:48:24.527Z,9.463014
2024-04-18T10:49:24.279Z,9.463259
2024-04-18T10:50:24.201Z,9.463043
2024-04-18T10:51:24.263Z,9.463479
2024-04-18T10:52:24.175Z,9.463637
2024-04-18T10:53:24.220Z,9.463491
2024-04-18T10:54:24.178Z,9.463273
2024-04-18T10:55:24.233Z,9.463422
2024-04-18T10:56:24.164Z,9.463214
2024-04-18T10:57:24.166Z,9.463035
2024-04-18T10:58:24.133Z,9.463616
2024-04-18T10:59:24.159Z,9.463378
2024-04-18T11:00:24.167Z,9.463407
2024-04-18T11:01:24.154Z,9.462960
2024-04-18T11:02:24.191Z,9.462967
2024-04-18T11:03:24.147Z,9.462915
2024-04-18T11:04:24.458Z,9.462592
2024-04-18T11:05:24.083Z,9.462977
2024-04-18T11:06:24.092Z,9.463169
2024-04-18T11:07:24.067Z,9.462940
2024-04-18T11:08:24.109Z,9.462981
2024-04-18T11:09:24.087Z,9.462813
2024-04-18T11:10:24.041Z,9.462844
2024-04-18T11:11:24.075Z,9.462960
2024-04-18T11:12:24.052Z,9.462828
2024-04-18T11:13:24.014Z,9.462842
2024-04-18T11:14:24.012Z,9.463012
2024-04-18T11:15:24.104Z,9.463016
2024-04-18T11:16:24.043Z,9.463007
2024-04-18T11:17:23.999Z,9.463028
2024-04-18T11:18:24.322Z,9.463058
2024-04-18T11:19:24.151Z,9.463016
2024-04-18T11:20:23.974Z,9.463004
2024-04-18T11:21:24.031Z,9.462925
2024-04-18T11:22:23.975Z,9.462926
2024-04-18T11:23:32.625Z,9.463019
2024-04-18T11:24:25.030Z,9.463063
2024-04-18T11:25:23.935Z,9.463045
2024-04-18T11:26:23.926Z,9.462991
2024-04-18T11:27:23.969Z,9.463019
2024-04-18T11:28:23.915Z,9.463084
2024-04-18T11:29:24.004Z,9.463037
2024-04-18T11:30:23.944Z,9.463053
2024-04-18T11:31:24.058Z,9.462911
2024-04-18T11:32:24.131Z,9.463006
2024-04-18T11:33:24.039Z,9.463054
2024-04-18T11:34:23.900Z,9.463116
2024-04-18T11:35:23.875Z,9.463059
2024-04-18T11:36:23.902Z,9.463060
2024-04-18T11:37:23.849Z,9.463055
2024-04-18T11:38:23.893Z,9.462976
2024-04-18T11:39:23.862Z,9.463194
2024-04-18T11:40:23.828Z,9.463332
2024-04-18T11:41:23.826Z,9.463193
2024-04-18T11:42:23.841Z,9.463139
2024-04-18T11:43:23.830Z,9.462931
2024-04-18T11:44:23.824Z,9.463035
2024-04-18T11:45:23.879Z,9.462981
2024-04-18T11:46:23.788Z,9.463023